sensor_id;sensor_type;location;lat;lon;timestamp;P1;durP1;ratioP1;P2;durP2;ratioP2
53751;SDS011;41095;53.090;6.692;2023-05-10T00:01:37;9.65;;;8.25;;
53751;SDS011;41095;53.090;6.692;2023-05-10T00:04:03;9.80;;;8.80;;
53751;SDS011;41095;53.090;6.692;2023-05-10T00:06:29;8.80;;;7.40;;
53751;SDS011;41095;53.090;6.692;2023-05-10T00:08:55;9.30;;;6.85;;
53751;SDS011;41095;53.090;6.692;2023-05-10T00:11:20;8.85;;;6.40;;
53751;SDS011;41095;53.090;6.692;2023-05-10T00:13:46;8.20;;;5.90;;
53751;SDS011;41095;53.090;6.692;2023-05-10T00:16:12;8.57;;;6.53;;
53751;SDS011;41095;53.090;6.692;2023-05-10T00:18:38;8.55;;;6.90;;
53751;SDS011;41095;53.090;6.692;2023-05-10T00:21:05;8.35;;;7.45;;
53751;SDS011;41095;53.090;6.692;2023-05-10T00:23:31;8.75;;;6.90;;
53751;SDS011;41095;53.090;6.692;2023-05-10T00:25:56;6.80;;;6.10;;
53751;SDS011;41095;53.090;6.692;2023-05-10T00:28:22;8.27;;;6.60;;
53751;SDS011;41095;53.090;6.692;2023-05-10T00:30:48;9.73;;;7.93;;
53751;SDS011;41095;53.090;6.692;2023-05-10T00:33:14;9.45;;;8.27;;
53751;SDS011;41095;53.090;6.692;2023-05-10T00:35:40;8.57;;;7.68;;
53751;SDS011;41095;53.090;6.692;2023-05-10T00:38:06;11.13;;;7.63;;
53751;SDS011;41095;53.090;6.692;2023-05-10T00:40:32;10.18;;;8.00;;
53751;SDS011;41095;53.090;6.692;2023-05-10T00:42:57;12.20;;;8.10;;
53751;SDS011;41095;53.090;6.692;2023-05-10T00:45:25;11.30;;;8.85;;
53751;SDS011;41095;53.090;6.692;2023-05-10T00:47:52;10.07;;;7.95;;
53751;SDS011;41095;53.090;6.692;2023-05-10T00:50:20;10.30;;;9.20;;
53751;SDS011;41095;53.090;6.692;2023-05-10T00:52:49;11.02;;;8.73;;
53751;SDS011;41095;53.090;6.692;2023-05-10T00:55:15;9.77;;;8.68;;
53751;SDS011;41095;53.090;6.692;2023-05-10T00:57:41;8.57;;;7.75;;
53751;SDS011;41095;53.090;6.692;2023-05-10T01:00:07;8.32;;;7.30;;
53751;SDS011;41095;53.090;6.692;2023-05-10T01:02:34;9.55;;;7.40;;
53751;SDS011;41095;53.090;6.692;2023-05-10T01:05:01;9.23;;;7.40;;
53751;SDS011;41095;53.090;6.692;2023-05-10T01:07:28;8.80;;;7.45;;
53751;SDS011;41095;53.090;6.692;2023-05-10T01:09:54;8.52;;;6.63;;
53751;SDS011;41095;53.090;6.692;2023-05-10T01:12:21;9.13;;;7.78;;
53751;SDS011;41095;53.090;6.692;2023-05-10T01:14:46;8.18;;;7.40;;
53751;SDS011;41095;53.090;6.692;2023-05-10T01:17:13;9.45;;;7.47;;
53751;SDS011;41095;53.090;6.692;2023-05-10T01:19:39;8.90;;;7.97;;
53751;SDS011;41095;53.090;6.692;2023-05-10T01:27:27;9.80;;;7.10;;
53751;SDS011;41095;53.090;6.692;2023-05-10T01:43:55;10.27;;;8.40;;
53751;SDS011;41095;53.090;6.692;2023-05-10T01:46:39;8.93;;;6.57;;
53751;SDS011;41095;53.090;6.692;2023-05-10T01:49:09;8.95;;;7.75;;
53751;SDS011;41095;53.090;6.692;2023-05-10T01:51:47;8.10;;;6.63;;
53751;SDS011;41095;53.090;6.692;2023-05-10T01:54:17;10.73;;;8.98;;
53751;SDS011;41095;53.090;6.692;2023-05-10T01:56:45;9.95;;;8.25;;
53751;SDS011;41095;53.090;6.692;2023-05-10T01:59:16;8.75;;;6.90;;
53751;SDS011;41095;53.090;6.692;2023-05-10T02:01:44;9.02;;;7.65;;
53751;SDS011;41095;53.090;6.692;2023-05-10T02:04:12;9.07;;;6.93;;
53751;SDS011;41095;53.090;6.692;2023-05-10T02:06:42;9.50;;;6.85;;
53751;SDS011;41095;53.090;6.692;2023-05-10T02:09:10;8.00;;;6.53;;
53751;SDS011;41095;53.090;6.692;2023-05-10T02:11:41;9.35;;;7.07;;
53751;SDS011;41095;53.090;6.692;2023-05-10T02:14:09;7.45;;;6.68;;
53751;SDS011;41095;53.090;6.692;2023-05-10T02:16:36;9.90;;;7.60;;
53751;SDS011;41095;53.090;6.692;2023-05-10T02:19:03;9.60;;;7.05;;
53751;SDS011;41095;53.090;6.692;2023-05-10T02:21:32;9.00;;;7.43;;
53751;SDS011;41095;53.090;6.692;2023-05-10T02:23:59;8.30;;;7.18;;
53751;SDS011;41095;53.090;6.692;2023-05-10T02:26:28;8.13;;;6.68;;
53751;SDS011;41095;53.090;6.692;2023-05-10T02:28:56;8.90;;;6.90;;
53751;SDS011;41095;53.090;6.692;2023-05-10T02:31:23;8.68;;;6.95;;
53751;SDS011;41095;53.090;6.692;2023-05-10T02:33:50;10.93;;;7.68;;
53751;SDS011;41095;53.090;6.692;2023-05-10T02:36:16;7.30;;;6.53;;
53751;SDS011;41095;53.090;6.692;2023-05-10T02:38:43;8.73;;;7.25;;
53751;SDS011;41095;53.090;6.692;2023-05-10T02:41:10;10.70;;;7.63;;
53751;SDS011;41095;53.090;6.692;2023-05-10T02:43:36;8.73;;;7.82;;
53751;SDS011;41095;53.090;6.692;2023-05-10T02:46:05;8.52;;;7.18;;
53751;SDS011;41095;53.090;6.692;2023-05-10T02:48:30;8.98;;;7.95;;
53751;SDS011;41095;53.090;6.692;2023-05-10T02:50:59;7.43;;;6.45;;
53751;SDS011;41095;53.090;6.692;2023-05-10T02:53:33;10.38;;;8.10;;
53751;SDS011;41095;53.090;6.692;2023-05-10T02:56:01;9.30;;;8.23;;
53751;SDS011;41095;53.090;6.692;2023-05-10T02:58:32;9.85;;;8.18;;
53751;SDS011;41095;53.090;6.692;2023-05-10T03:00:59;7.95;;;7.15;;
53751;SDS011;41095;53.090;6.692;2023-05-10T03:03:25;13.98;;;10.10;;
53751;SDS011;41095;53.090;6.692;2023-05-10T03:05:51;12.77;;;9.20;;
53751;SDS011;41095;53.090;6.692;2023-05-10T03:08:20;10.95;;;8.65;;
53751;SDS011;41095;53.090;6.692;2023-05-10T03:11:22;10.95;;;8.75;;
53751;SDS011;41095;53.090;6.692;2023-05-10T03:14:02;13.90;;;8.65;;
53751;SDS011;41095;53.090;6.692;2023-05-10T03:16:33;13.25;;;9.10;;
53751;SDS011;41095;53.090;6.692;2023-05-10T03:19:17;12.30;;;10.18;;
53751;SDS011;41095;53.090;6.692;2023-05-10T03:21:52;14.07;;;10.07;;
53751;SDS011;41095;53.090;6.692;2023-05-10T03:24:21;13.25;;;8.80;;
53751;SDS011;41095;53.090;6.692;2023-05-10T03:26:51;14.18;;;10.43;;
53751;SDS011;41095;53.090;6.692;2023-05-10T03:29:21;13.10;;;10.43;;
53751;SDS011;41095;53.090;6.692;2023-05-10T03:31:49;16.70;;;11.27;;
53751;SDS011;41095;53.090;6.692;2023-05-10T03:34:15;14.88;;;10.73;;
53751;SDS011;41095;53.090;6.692;2023-05-10T03:36:41;15.93;;;9.80;;
53751;SDS011;41095;53.090;6.692;2023-05-10T03:39:07;17.38;;;12.15;;
53751;SDS011;41095;53.090;6.692;2023-05-10T03:41:32;16.45;;;11.85;;
53751;SDS011;41095;53.090;6.692;2023-05-10T03:43:58;18.77;;;11.40;;
53751;SDS011;41095;53.090;6.692;2023-05-10T03:46:23;16.38;;;11.23;;
53751;SDS011;41095;53.090;6.692;2023-05-10T03:48:49;17.10;;;11.55;;
53751;SDS011;41095;53.090;6.692;2023-05-10T03:51:15;18.25;;;11.95;;
53751;SDS011;41095;53.090;6.692;2023-05-10T03:53:40;14.40;;;11.13;;
53751;SDS011;41095;53.090;6.692;2023-05-10T03:56:06;19.52;;;13.65;;
53751;SDS011;41095;53.090;6.692;2023-05-10T03:58:32;15.52;;;12.85;;
53751;SDS011;41095;53.090;6.692;2023-05-10T04:00:57;14.90;;;11.93;;
53751;SDS011;41095;53.090;6.692;2023-05-10T04:03:23;17.98;;;11.82;;
53751;SDS011;41095;53.090;6.692;2023-05-10T04:05:57;19.85;;;12.43;;
53751;SDS011;41095;53.090;6.692;2023-05-10T04:08:25;18.52;;;11.85;;
53751;SDS011;41095;53.090;6.692;2023-05-10T04:10:50;15.32;;;11.57;;
53751;SDS011;41095;53.090;6.692;2023-05-10T04:13:16;15.32;;;10.60;;
53751;SDS011;41095;53.090;6.692;2023-05-10T04:15:42;17.10;;;11.55;;
53751;SDS011;41095;53.090;6.692;2023-05-10T04:18:08;16.23;;;10.20;;
53751;SDS011;41095;53.090;6.692;2023-05-10T04:20:35;14.18;;;10.45;;
53751;SDS011;41095;53.090;6.692;2023-05-10T04:23:00;16.35;;;11.02;;
53751;SDS011;41095;53.090;6.692;2023-05-10T04:25:26;14.98;;;10.25;;
53751;SDS011;41095;53.090;6.692;2023-05-10T04:27:52;12.13;;;9.70;;
53751;SDS011;41095;53.090;6.692;2023-05-10T04:30:17;13.07;;;9.82;;
53751;SDS011;41095;53.090;6.692;2023-05-10T04:32:43;11.70;;;8.32;;
53751;SDS011;41095;53.090;6.692;2023-05-10T04:35:09;13.73;;;10.57;;
53751;SDS011;41095;53.090;6.692;2023-05-10T04:37:35;11.43;;;9.00;;
53751;SDS011;41095;53.090;6.692;2023-05-10T04:40:01;12.90;;;9.25;;
53751;SDS011;41095;53.090;6.692;2023-05-10T04:42:28;12.30;;;8.52;;
53751;SDS011;41095;53.090;6.692;2023-05-10T04:48:37;10.52;;;8.95;;
53751;SDS011;41095;53.090;6.692;2023-05-10T04:51:03;11.68;;;8.48;;
53751;SDS011;41095;53.090;6.692;2023-05-10T04:53:29;10.63;;;8.80;;
53751;SDS011;41095;53.090;6.692;2023-05-10T04:55:55;10.60;;;8.10;;
53751;SDS011;41095;53.090;6.692;2023-05-10T04:58:21;11.63;;;9.35;;
53751;SDS011;41095;53.090;6.692;2023-05-10T05:00:46;12.05;;;8.90;;
53751;SDS011;41095;53.090;6.692;2023-05-10T05:03:12;10.77;;;8.60;;
53751;SDS011;41095;53.090;6.692;2023-05-10T05:05:38;9.90;;;7.95;;
53751;SDS011;41095;53.090;6.692;2023-05-10T05:08:04;10.13;;;7.47;;
53751;SDS011;41095;53.090;6.692;2023-05-10T05:10:29;11.45;;;9.02;;
53751;SDS011;41095;53.090;6.692;2023-05-10T05:12:55;9.13;;;7.70;;
53751;SDS011;41095;53.090;6.692;2023-05-10T05:15:21;8.55;;;7.63;;
53751;SDS011;41095;53.090;6.692;2023-05-10T05:17:46;8.95;;;7.18;;
53751;SDS011;41095;53.090;6.692;2023-05-10T05:20:12;8.95;;;8.02;;
53751;SDS011;41095;53.090;6.692;2023-05-10T05:22:38;8.68;;;7.43;;
53751;SDS011;41095;53.090;6.692;2023-05-10T05:25:04;8.02;;;7.25;;
53751;SDS011;41095;53.090;6.692;2023-05-10T05:27:30;7.32;;;6.65;;
53751;SDS011;41095;53.090;6.692;2023-05-10T05:29:57;7.65;;;6.82;;
53751;SDS011;41095;53.090;6.692;2023-05-10T05:32:23;6.53;;;5.75;;
53751;SDS011;41095;53.090;6.692;2023-05-10T05:34:49;5.97;;;5.35;;
53751;SDS011;41095;53.090;6.692;2023-05-10T05:37:16;5.50;;;4.80;;
53751;SDS011;41095;53.090;6.692;2023-05-10T05:39:42;5.82;;;4.97;;
53751;SDS011;41095;53.090;6.692;2023-05-10T05:42:09;7.25;;;5.60;;
53751;SDS011;41095;53.090;6.692;2023-05-10T05:44:35;5.78;;;5.18;;
53751;SDS011;41095;53.090;6.692;2023-05-10T05:47:01;5.65;;;4.93;;
53751;SDS011;41095;53.090;6.692;2023-05-10T05:49:26;4.32;;;3.92;;
53751;SDS011;41095;53.090;6.692;2023-05-10T05:51:52;4.40;;;4.00;;
53751;SDS011;41095;53.090;6.692;2023-05-10T05:54:18;5.00;;;3.50;;
53751;SDS011;41095;53.090;6.692;2023-05-10T05:56:44;3.83;;;3.53;;
53751;SDS011;41095;53.090;6.692;2023-05-10T05:59:12;4.60;;;3.80;;
53751;SDS011;41095;53.090;6.692;2023-05-10T06:01:38;3.08;;;2.88;;
53751;SDS011;41095;53.090;6.692;2023-05-10T06:04:04;2.95;;;2.60;;
53751;SDS011;41095;53.090;6.692;2023-05-10T06:06:30;3.88;;;2.30;;
53751;SDS011;41095;53.090;6.692;2023-05-10T06:08:57;2.25;;;2.08;;
53751;SDS011;41095;53.090;6.692;2023-05-10T06:11:23;2.17;;;2.03;;
53751;SDS011;41095;53.090;6.692;2023-05-10T06:13:48;3.45;;;2.17;;
53751;SDS011;41095;53.090;6.692;2023-05-10T06:16:14;2.20;;;2.10;;
53751;SDS011;41095;53.090;6.692;2023-05-10T06:18:40;2.97;;;1.92;;
53751;SDS011;41095;53.090;6.692;2023-05-10T06:21:06;2.38;;;2.13;;
53751;SDS011;41095;53.090;6.692;2023-05-10T06:23:31;2.92;;;1.83;;
53751;SDS011;41095;53.090;6.692;2023-05-10T06:25:57;2.58;;;2.28;;
53751;SDS011;41095;53.090;6.692;2023-05-10T06:28:23;4.32;;;2.35;;
53751;SDS011;41095;53.090;6.692;2023-05-10T06:30:49;2.38;;;1.70;;
53751;SDS011;41095;53.090;6.692;2023-05-10T06:33:14;2.80;;;1.90;;
53751;SDS011;41095;53.090;6.692;2023-05-10T06:35:41;2.00;;;1.90;;
53751;SDS011;41095;53.090;6.692;2023-05-10T06:38:07;1.70;;;1.60;;
53751;SDS011;41095;53.090;6.692;2023-05-10T06:40:32;1.88;;;1.70;;
53751;SDS011;41095;53.090;6.692;2023-05-10T06:42:58;1.00;;;1.00;;
53751;SDS011;41095;53.090;6.692;2023-05-10T06:45:24;1.23;;;1.08;;
53751;SDS011;41095;53.090;6.692;2023-05-10T06:47:49;1.52;;;1.10;;
53751;SDS011;41095;53.090;6.692;2023-05-10T06:50:15;0.90;;;0.90;;
53751;SDS011;41095;53.090;6.692;2023-05-10T06:52:41;1.10;;;1.00;;
53751;SDS011;41095;53.090;6.692;2023-05-10T06:55:07;1.00;;;1.00;;
53751;SDS011;41095;53.090;6.692;2023-05-10T06:57:33;1.85;;;1.40;;
53751;SDS011;41095;53.090;6.692;2023-05-10T06:59:59;2.72;;;1.90;;
53751;SDS011;41095;53.090;6.692;2023-05-10T07:02:26;2.30;;;2.10;;
53751;SDS011;41095;53.090;6.692;2023-05-10T07:04:52;3.25;;;2.30;;
53751;SDS011;41095;53.090;6.692;2023-05-10T07:07:18;2.15;;;1.92;;
53751;SDS011;41095;53.090;6.692;2023-05-10T07:09:44;1.60;;;1.50;;
53751;SDS011;41095;53.090;6.692;2023-05-10T07:12:10;1.90;;;1.75;;
53751;SDS011;41095;53.090;6.692;2023-05-10T07:14:35;1.80;;;1.42;;
53751;SDS011;41095;53.090;6.692;2023-05-10T07:17:01;1.50;;;1.40;;
53751;SDS011;41095;53.090;6.692;2023-05-10T07:19:26;3.33;;;1.40;;
53751;SDS011;41095;53.090;6.692;2023-05-10T07:21:54;2.72;;;1.45;;
53751;SDS011;41095;53.090;6.692;2023-05-10T07:24:20;1.25;;;1.15;;
53751;SDS011;41095;53.090;6.692;2023-05-10T07:26:46;2.30;;;1.42;;
53751;SDS011;41095;53.090;6.692;2023-05-10T07:29:11;1.08;;;0.95;;
53751;SDS011;41095;53.090;6.692;2023-05-10T07:31:37;0.98;;;0.90;;
53751;SDS011;41095;53.090;6.692;2023-05-10T07:34:03;1.02;;;1.00;;
53751;SDS011;41095;53.090;6.692;2023-05-10T07:36:28;1.25;;;1.00;;
53751;SDS011;41095;53.090;6.692;2023-05-10T07:38:54;1.20;;;1.10;;
53751;SDS011;41095;53.090;6.692;2023-05-10T07:41:21;2.67;;;1.30;;
53751;SDS011;41095;53.090;6.692;2023-05-10T07:43:47;1.10;;;1.05;;
53751;SDS011;41095;53.090;6.692;2023-05-10T07:46:13;1.30;;;1.20;;
53751;SDS011;41095;53.090;6.692;2023-05-10T07:48:38;2.25;;;1.05;;
53751;SDS011;41095;53.090;6.692;2023-05-10T07:51:04;1.10;;;1.10;;
53751;SDS011;41095;53.090;6.692;2023-05-10T07:53:32;1.33;;;1.23;;
53751;SDS011;41095;53.090;6.692;2023-05-10T07:55:57;1.10;;;1.02;;
53751;SDS011;41095;53.090;6.692;2023-05-10T07:58:24;1.42;;;1.27;;
53751;SDS011;41095;53.090;6.692;2023-05-10T08:00:50;1.15;;;1.05;;
53751;SDS011;41095;53.090;6.692;2023-05-10T08:03:16;1.33;;;1.23;;
53751;SDS011;41095;53.090;6.692;2023-05-10T08:05:41;2.08;;;1.25;;
53751;SDS011;41095;53.090;6.692;2023-05-10T08:08:07;1.58;;;1.48;;
53751;SDS011;41095;53.090;6.692;2023-05-10T08:10:33;2.10;;;1.90;;
53751;SDS011;41095;53.090;6.692;2023-05-10T08:12:58;2.10;;;1.95;;
53751;SDS011;41095;53.090;6.692;2023-05-10T08:15:24;2.42;;;2.25;;
53751;SDS011;41095;53.090;6.692;2023-05-10T08:17:53;2.97;;;2.38;;
53751;SDS011;41095;53.090;6.692;2023-05-10T08:20:19;3.90;;;2.60;;
53751;SDS011;41095;53.090;6.692;2023-05-10T08:22:45;3.15;;;2.88;;
53751;SDS011;41095;53.090;6.692;2023-05-10T08:25:11;2.72;;;2.53;;
53751;SDS011;41095;53.090;6.692;2023-05-10T08:27:37;3.53;;;3.22;;
53751;SDS011;41095;53.090;6.692;2023-05-10T08:30:03;3.05;;;2.85;;
53751;SDS011;41095;53.090;6.692;2023-05-10T08:32:29;3.55;;;2.97;;
53751;SDS011;41095;53.090;6.692;2023-05-10T08:34:55;3.03;;;2.83;;
53751;SDS011;41095;53.090;6.692;2023-05-10T08:37:22;4.32;;;3.45;;
53751;SDS011;41095;53.090;6.692;2023-05-10T08:39:48;4.13;;;3.42;;
53751;SDS011;41095;53.090;6.692;2023-05-10T08:42:14;3.95;;;3.58;;
53751;SDS011;41095;53.090;6.692;2023-05-10T08:44:44;3.67;;;3.30;;
53751;SDS011;41095;53.090;6.692;2023-05-10T08:47:12;3.97;;;3.53;;
53751;SDS011;41095;53.090;6.692;2023-05-10T08:49:40;3.40;;;3.10;;
53751;SDS011;41095;53.090;6.692;2023-05-10T08:52:08;4.25;;;3.30;;
53751;SDS011;41095;53.090;6.692;2023-05-10T08:54:37;5.30;;;3.65;;
53751;SDS011;41095;53.090;6.692;2023-05-10T08:57:03;3.70;;;3.08;;
53751;SDS011;41095;53.090;6.692;2023-05-10T08:59:29;4.97;;;3.53;;
53751;SDS011;41095;53.090;6.692;2023-05-10T09:01:58;3.70;;;3.40;;
53751;SDS011;41095;53.090;6.692;2023-05-10T09:04:24;4.50;;;3.30;;
53751;SDS011;41095;53.090;6.692;2023-05-10T09:06:50;3.70;;;3.30;;
53751;SDS011;41095;53.090;6.692;2023-05-10T09:09:16;3.83;;;3.42;;
53751;SDS011;41095;53.090;6.692;2023-05-10T09:11:43;4.05;;;3.40;;
53751;SDS011;41095;53.090;6.692;2023-05-10T09:14:09;5.43;;;3.50;;
53751;SDS011;41095;53.090;6.692;2023-05-10T09:16:37;5.05;;;4.25;;
53751;SDS011;41095;53.090;6.692;2023-05-10T09:19:03;4.95;;;3.90;;
53751;SDS011;41095;53.090;6.692;2023-05-10T09:21:29;3.95;;;3.58;;
53751;SDS011;41095;53.090;6.692;2023-05-10T09:23:56;5.95;;;3.53;;
53751;SDS011;41095;53.090;6.692;2023-05-10T09:26:22;4.82;;;4.20;;
53751;SDS011;41095;53.090;6.692;2023-05-10T09:28:52;6.93;;;3.72;;
53751;SDS011;41095;53.090;6.692;2023-05-10T09:31:46;4.72;;;4.32;;
53751;SDS011;41095;53.090;6.692;2023-05-10T09:34:16;5.15;;;3.42;;
53751;SDS011;41095;53.090;6.692;2023-05-10T09:36:56;4.07;;;3.65;;
53751;SDS011;41095;53.090;6.692;2023-05-10T09:39:32;4.43;;;3.95;;
53751;SDS011;41095;53.090;6.692;2023-05-10T09:42:02;4.72;;;3.85;;
53751;SDS011;41095;53.090;6.692;2023-05-10T09:44:30;4.18;;;3.78;;
53751;SDS011;41095;53.090;6.692;2023-05-10T09:46:58;6.15;;;3.50;;
53751;SDS011;41095;53.090;6.692;2023-05-10T09:49:25;4.97;;;3.88;;
53751;SDS011;41095;53.090;6.692;2023-05-10T09:52:06;5.20;;;4.00;;
53751;SDS011;41095;53.090;6.692;2023-05-10T09:54:32;5.45;;;4.00;;
53751;SDS011;41095;53.090;6.692;2023-05-10T09:56:59;5.85;;;3.83;;
53751;SDS011;41095;53.090;6.692;2023-05-10T09:59:26;5.53;;;4.15;;
53751;SDS011;41095;53.090;6.692;2023-05-10T10:01:53;6.25;;;4.13;;
53751;SDS011;41095;53.090;6.692;2023-05-10T10:04:22;4.95;;;4.43;;
53751;SDS011;41095;53.090;6.692;2023-05-10T10:06:57;6.53;;;4.18;;
53751;SDS011;41095;53.090;6.692;2023-05-10T10:09:24;5.65;;;4.50;;
53751;SDS011;41095;53.090;6.692;2023-05-10T10:11:50;5.22;;;4.45;;
53751;SDS011;41095;53.090;6.692;2023-05-10T10:14:18;6.07;;;4.30;;
53751;SDS011;41095;53.090;6.692;2023-05-10T10:16:43;4.60;;;4.18;;
53751;SDS011;41095;53.090;6.692;2023-05-10T10:19:10;5.50;;;4.47;;
53751;SDS011;41095;53.090;6.692;2023-05-10T10:21:35;5.13;;;4.40;;
53751;SDS011;41095;53.090;6.692;2023-05-10T10:24:01;6.90;;;4.60;;
53751;SDS011;41095;53.090;6.692;2023-05-10T10:26:30;5.05;;;4.55;;
53751;SDS011;41095;53.090;6.692;2023-05-10T10:31:50;5.65;;;4.90;;
53751;SDS011;41095;53.090;6.692;2023-05-10T10:34:35;5.90;;;4.70;;
53751;SDS011;41095;53.090;6.692;2023-05-10T10:37:05;5.68;;;4.20;;
53751;SDS011;41095;53.090;6.692;2023-05-10T10:39:31;7.20;;;5.32;;
53751;SDS011;41095;53.090;6.692;2023-05-10T10:41:58;7.22;;;4.75;;
53751;SDS011;41095;53.090;6.692;2023-05-10T10:49:34;4.97;;;4.38;;
53751;SDS011;41095;53.090;6.692;2023-05-10T10:54:52;4.75;;;4.35;;
53751;SDS011;41095;53.090;6.692;2023-05-10T10:57:18;7.65;;;4.63;;
53751;SDS011;41095;53.090;6.692;2023-05-10T10:59:46;8.20;;;5.07;;
53751;SDS011;41095;53.090;6.692;2023-05-10T11:04:58;6.50;;;4.50;;
53751;SDS011;41095;53.090;6.692;2023-05-10T11:07:24;8.82;;;5.32;;
53751;SDS011;41095;53.090;6.692;2023-05-10T11:09:49;4.95;;;4.22;;
53751;SDS011;41095;53.090;6.692;2023-05-10T11:12:16;6.93;;;5.00;;
53751;SDS011;41095;53.090;6.692;2023-05-10T11:14:42;6.07;;;4.15;;
53751;SDS011;41095;53.090;6.692;2023-05-10T11:17:24;7.78;;;4.40;;
53751;SDS011;41095;53.090;6.692;2023-05-10T11:20:09;9.80;;;4.55;;
53751;SDS011;41095;53.090;6.692;2023-05-10T11:22:54;7.03;;;4.32;;
53751;SDS011;41095;53.090;6.692;2023-05-10T11:25:23;4.90;;;3.88;;
53751;SDS011;41095;53.090;6.692;2023-05-10T11:27:51;5.82;;;4.43;;
53751;SDS011;41095;53.090;6.692;2023-05-10T11:30:17;6.03;;;3.55;;
53751;SDS011;41095;53.090;6.692;2023-05-10T11:32:43;6.70;;;3.95;;
53751;SDS011;41095;53.090;6.692;2023-05-10T11:35:10;8.95;;;4.60;;
53751;SDS011;41095;53.090;6.692;2023-05-10T11:37:37;4.97;;;4.28;;
53751;SDS011;41095;53.090;6.692;2023-05-10T11:40:09;5.60;;;4.32;;
53751;SDS011;41095;53.090;6.692;2023-05-10T11:42:38;5.60;;;4.18;;
53751;SDS011;41095;53.090;6.692;2023-05-10T11:45:04;5.93;;;4.55;;
53751;SDS011;41095;53.090;6.692;2023-05-10T11:47:30;4.85;;;4.05;;
53751;SDS011;41095;53.090;6.692;2023-05-10T11:49:56;6.00;;;4.47;;
53751;SDS011;41095;53.090;6.692;2023-05-10T11:52:23;6.43;;;3.90;;
53751;SDS011;41095;53.090;6.692;2023-05-10T11:54:52;6.13;;;4.82;;
53751;SDS011;41095;53.090;6.692;2023-05-10T11:57:20;6.88;;;4.20;;
53751;SDS011;41095;53.090;6.692;2023-05-10T11:59:46;5.82;;;4.60;;
53751;SDS011;41095;53.090;6.692;2023-05-10T12:02:13;6.28;;;4.30;;
53751;SDS011;41095;53.090;6.692;2023-05-10T12:04:39;6.40;;;4.32;;
53751;SDS011;41095;53.090;6.692;2023-05-10T12:07:05;5.32;;;4.25;;
53751;SDS011;41095;53.090;6.692;2023-05-10T12:09:31;7.28;;;4.95;;
53751;SDS011;41095;53.090;6.692;2023-05-10T12:11:56;4.72;;;3.90;;
53751;SDS011;41095;53.090;6.692;2023-05-10T12:14:22;5.63;;;4.55;;
53751;SDS011;41095;53.090;6.692;2023-05-10T12:16:49;7.00;;;4.53;;
53751;SDS011;41095;53.090;6.692;2023-05-10T12:19:18;8.48;;;5.25;;
53751;SDS011;41095;53.090;6.692;2023-05-10T12:21:45;9.15;;;5.15;;
53751;SDS011;41095;53.090;6.692;2023-05-10T12:24:12;7.20;;;4.82;;
53751;SDS011;41095;53.090;6.692;2023-05-10T12:26:38;7.80;;;5.10;;
53751;SDS011;41095;53.090;6.692;2023-05-10T12:29:17;6.47;;;4.45;;
53751;SDS011;41095;53.090;6.692;2023-05-10T12:31:53;5.95;;;4.55;;
53751;SDS011;41095;53.090;6.692;2023-05-10T12:34:33;7.78;;;5.57;;
53751;SDS011;41095;53.090;6.692;2023-05-10T12:37:01;7.20;;;4.97;;
53751;SDS011;41095;53.090;6.692;2023-05-10T12:42:07;7.30;;;5.07;;
53751;SDS011;41095;53.090;6.692;2023-05-10T12:44:33;6.47;;;5.07;;
53751;SDS011;41095;53.090;6.692;2023-05-10T12:46:59;6.85;;;5.30;;
53751;SDS011;41095;53.090;6.692;2023-05-10T12:49:24;10.70;;;6.05;;
53751;SDS011;41095;53.090;6.692;2023-05-10T12:51:50;6.00;;;4.90;;
53751;SDS011;41095;53.090;6.692;2023-05-10T12:54:16;6.85;;;5.05;;
53751;SDS011;41095;53.090;6.692;2023-05-10T12:56:42;7.70;;;5.03;;
53751;SDS011;41095;53.090;6.692;2023-05-10T12:59:08;9.73;;;5.95;;
53751;SDS011;41095;53.090;6.692;2023-05-10T13:01:34;9.40;;;5.72;;
53751;SDS011;41095;53.090;6.692;2023-05-10T13:03:59;7.43;;;5.10;;
53751;SDS011;41095;53.090;6.692;2023-05-10T13:06:25;6.20;;;4.88;;
53751;SDS011;41095;53.090;6.692;2023-05-10T13:08:51;6.82;;;4.88;;
53751;SDS011;41095;53.090;6.692;2023-05-10T13:11:16;7.60;;;4.85;;
53751;SDS011;41095;53.090;6.692;2023-05-10T13:13:44;7.88;;;5.90;;
53751;SDS011;41095;53.090;6.692;2023-05-10T13:16:10;7.82;;;5.20;;
53751;SDS011;41095;53.090;6.692;2023-05-10T13:18:36;6.75;;;4.90;;
53751;SDS011;41095;53.090;6.692;2023-05-10T13:21:01;6.72;;;4.85;;
53751;SDS011;41095;53.090;6.692;2023-05-10T13:23:28;6.43;;;4.68;;
53751;SDS011;41095;53.090;6.692;2023-05-10T13:25:54;6.82;;;5.15;;
53751;SDS011;41095;53.090;6.692;2023-05-10T13:28:20;7.30;;;4.82;;
53751;SDS011;41095;53.090;6.692;2023-05-10T13:30:46;7.13;;;4.95;;
53751;SDS011;41095;53.090;6.692;2023-05-10T13:33:11;5.93;;;4.60;;
53751;SDS011;41095;53.090;6.692;2023-05-10T13:35:37;8.40;;;6.35;;
53751;SDS011;41095;53.090;6.692;2023-05-10T13:38:02;7.38;;;5.00;;
53751;SDS011;41095;53.090;6.692;2023-05-10T13:40:28;6.90;;;5.30;;
53751;SDS011;41095;53.090;6.692;2023-05-10T13:42:54;6.90;;;5.05;;
53751;SDS011;41095;53.090;6.692;2023-05-10T13:45:20;7.38;;;5.43;;
53751;SDS011;41095;53.090;6.692;2023-05-10T13:47:45;8.20;;;4.88;;
53751;SDS011;41095;53.090;6.692;2023-05-10T13:50:11;7.13;;;4.53;;
53751;SDS011;41095;53.090;6.692;2023-05-10T13:52:37;6.53;;;5.70;;
53751;SDS011;41095;53.090;6.692;2023-05-10T13:55:02;7.95;;;4.65;;
53751;SDS011;41095;53.090;6.692;2023-05-10T13:57:28;7.18;;;5.00;;
53751;SDS011;41095;53.090;6.692;2023-05-10T13:59:55;7.22;;;4.70;;
53751;SDS011;41095;53.090;6.692;2023-05-10T14:02:22;7.15;;;4.65;;
53751;SDS011;41095;53.090;6.692;2023-05-10T14:04:48;6.40;;;4.95;;
53751;SDS011;41095;53.090;6.692;2023-05-10T14:07:13;6.88;;;4.88;;
53751;SDS011;41095;53.090;6.692;2023-05-10T14:09:39;7.97;;;4.97;;
53751;SDS011;41095;53.090;6.692;2023-05-10T14:12:05;6.85;;;4.90;;
53751;SDS011;41095;53.090;6.692;2023-05-10T14:14:30;6.93;;;5.00;;
53751;SDS011;41095;53.090;6.692;2023-05-10T14:16:56;7.60;;;5.00;;
53751;SDS011;41095;53.090;6.692;2023-05-10T14:19:22;6.00;;;4.78;;
53751;SDS011;41095;53.090;6.692;2023-05-10T14:21:47;8.65;;;5.78;;
53751;SDS011;41095;53.090;6.692;2023-05-10T14:24:13;7.00;;;4.68;;
53751;SDS011;41095;53.090;6.692;2023-05-10T14:26:39;5.43;;;4.28;;
53751;SDS011;41095;53.090;6.692;2023-05-10T14:29:04;5.82;;;4.93;;
53751;SDS011;41095;53.090;6.692;2023-05-10T14:31:30;7.28;;;4.68;;
53751;SDS011;41095;53.090;6.692;2023-05-10T14:33:56;5.85;;;4.95;;
53751;SDS011;41095;53.090;6.692;2023-05-10T14:36:22;6.47;;;4.43;;
53751;SDS011;41095;53.090;6.692;2023-05-10T14:38:48;9.18;;;5.22;;
53751;SDS011;41095;53.090;6.692;2023-05-10T14:41:15;9.90;;;6.20;;
53751;SDS011;41095;53.090;6.692;2023-05-10T14:43:42;8.68;;;5.45;;
53751;SDS011;41095;53.090;6.692;2023-05-10T14:46:08;9.32;;;7.00;;
53751;SDS011;41095;53.090;6.692;2023-05-10T14:48:34;10.15;;;6.70;;
53751;SDS011;41095;53.090;6.692;2023-05-10T14:51:00;9.48;;;6.60;;
53751;SDS011;41095;53.090;6.692;2023-05-10T14:53:25;11.38;;;7.03;;
53751;SDS011;41095;53.090;6.692;2023-05-10T14:55:51;10.93;;;6.28;;
53751;SDS011;41095;53.090;6.692;2023-05-10T14:58:17;8.77;;;6.07;;
53751;SDS011;41095;53.090;6.692;2023-05-10T15:00:43;9.52;;;7.47;;
53751;SDS011;41095;53.090;6.692;2023-05-10T15:03:08;10.32;;;6.82;;
53751;SDS011;41095;53.090;6.692;2023-05-10T15:05:34;10.43;;;7.45;;
53751;SDS011;41095;53.090;6.692;2023-05-10T15:08:02;11.50;;;7.20;;
53751;SDS011;41095;53.090;6.692;2023-05-10T15:10:28;8.57;;;6.97;;
53751;SDS011;41095;53.090;6.692;2023-05-10T15:12:53;10.98;;;8.07;;
53751;SDS011;41095;53.090;6.692;2023-05-10T15:15:19;10.57;;;6.70;;
53751;SDS011;41095;53.090;6.692;2023-05-10T15:17:45;9.23;;;6.47;;
53751;SDS011;41095;53.090;6.692;2023-05-10T15:20:11;10.80;;;6.93;;
53751;SDS011;41095;53.090;6.692;2023-05-10T15:22:37;13.27;;;7.65;;